Main page
METAR-TAF:

METAR-TAF

Airports :

Nouakchott–Oumtounsy International Airport

Nouakchott, Mauritania

latitude: 18-18-36N, longitude: 015-58-11W, elevation: 3 m

Current weather observation

The report was made 34 minutes ago, at 12:00 UTC
Wind 11 kt from the Northwest, varying between West/Northwest and North
Temperature 30°C
Humidity 66%
Pressure 1011 hPa
Visibility: 8000 m
Broken clouds at a height of 1300 ft

METAR: GQNO 251200Z 32011KT 290V350 8000 BKN013 30/23 Q1011 NOSIG

Time: 12:34 (12:34 UTC)

Forecast

The report was made 1 hour and 34 minutes ago, at 11:00 UTC
Forecast valid from 25 at 12 UTC to 26 at 18 UTC
Wind 10 kt from the West
Visibility: 8000 m
Broken clouds at a height of 1300 ft

TAF: GQNO 251100Z 2512/2618 28010KT 8000 BKN013

Weather observations and forecasts of more than 4000 airports (METAR and TAF reports).

The available stations are represented by yellow and red dots on the map.

Hover mouse over dot to see the name of the station.

Then click to see weather observations and forecasts.

To change the map : click on the green buttons with a black cross to zoom in, on the green button with a dash to zoom out, or on the green arrows for adjacent maps.


METAR-TAF: